Martine P — 2FIL4 — position and weather

sailwx.info

Track history (hours):
 
Tides and Currents Weather Stations Pressure Air Temp Water Temp Dewpoint Dewpoint Depression Visibility Wind Speed Wind Dir Waves Ship Positions

Martine P

Last reported at 2016-Sep-26 02:33 UTC. Time now 2016-Sep-26 03:42 UTC.
Position N 53°35' W 000°04'.

Length 27 m; draft 2.8 m.

Type: Tug. MMSI: 235091541.

Date/timePositionNaut miles runAvg speedWind from/ knotsBaromVisibWave heightAir tempDewpointWater temp
2016-Sep-26 02:33N 53°35' W 000°04'0 0.0
2016-Sep-26 01:33N 53°35' W 000°04'0 0.0
2016-Sep-26 00:33N 53°35' W 000°04'0 0.0
2016-Sep-25 21:33N 53°35' W 000°04'0 0.0
2016-Sep-25 17:30N 53°35' W 000°04'0 0.0
2016-Sep-25 16:33N 53°35' W 000°04'0 0.0
2016-Sep-25 15:33N 53°35' W 000°04'0 0.0
2016-Sep-25 14:33N 53°35' W 000°04'0 0.0
2016-Sep-25 12:33N 53°35' W 000°04'0 0.0
2016-Sep-25 11:30N 53°35' W 000°04'0 0.0
2016-Sep-25 10:33N 53°35' W 000°04'0 0.0
2016-Sep-25 09:33N 53°35' W 000°04'0 0.0
2016-Sep-25 07:33N 53°35' W 000°04'0 0.0
2016-Sep-25 04:33N 53°35' W 000°04'0 0.0
2016-Sep-25 00:33N 53°35' W 000°04'0 0.0
2016-Sep-24 22:33N 53°35' W 000°04'0 0.0
2016-Sep-24 21:33N 53°35' W 000°04'0 0.0
2016-Sep-24 19:33N 53°35' W 000°04'0 0.0
2016-Sep-24 18:33N 53°35' W 000°04'0 0.0
2016-Sep-24 17:33N 53°35' W 000°04'0 0.0
2016-Sep-24 16:32N 53°35' W 000°04'0 0.0
2016-Sep-24 14:33N 53°35' W 000°04'0 0.0
2016-Sep-24 12:33N 53°35' W 000°04'0 0.0
2016-Sep-24 10:33N 53°35' W 000°04'0 0.0
2016-Sep-24 09:33N 53°35' W 000°04'0 0.0
2016-Sep-24 03:33N 53°35' W 000°04'0 0.0
2016-Sep-24 02:32N 53°35' W 000°04'0 0.0
2016-Sep-24 01:33N 53°35' W 000°04'0 0.0
2016-Sep-24 00:33N 53°35' W 000°04'0 0.0
2016-Sep-23 19:32N 53°35' W 000°04'0 0.0
2016-Sep-23 17:32N 53°35' W 000°04'0 0.0
2016-Sep-23 16:32N 53°35' W 000°04'0 0.0
2016-Sep-23 15:32N 53°35' W 000°04'0 0.0
2016-Sep-23 13:33N 53°35' W 000°04'0 0.0
2016-Sep-23 09:33N 53°35' W 000°04'0 0.0
2016-Sep-23 06:33N 53°35' W 000°04'0 0.0
2016-Sep-23 04:34N 53°35' W 000°04'0 0.0
2016-Sep-23 03:33N 53°35' W 000°04'0 0.0
2016-Sep-23 02:34N 53°35' W 000°04'0 0.0
2016-Sep-23 01:33N 53°35' W 000°04'0 0.0
2016-Sep-23 00:33N 53°35' W 000°04'0 0.0
2016-Sep-22 23:33N 53°35' W 000°04'0 0.0
2016-Sep-22 20:33N 53°35' W 000°04'0 0.0
2016-Sep-22 12:34N 53°35' W 000°04'0 0.0
2016-Sep-22 04:33N 53°35' W 000°04'0 0.0
2016-Sep-22 03:33N 53°35' W 000°04'0 0.0
2016-Sep-22 00:33N 53°35' W 000°04'0 0.0
2016-Sep-21 23:33N 53°35' W 000°04'0 0.0
2016-Sep-21 22:33N 53°35' W 000°04'0 0.0
2016-Sep-21 19:33N 53°35' W 000°04'0 0.0
2016-Sep-21 16:33N 53°35' W 000°04'0 0.0
2016-Sep-21 09:33N 53°35' W 000°04'0 0.0
2016-Sep-21 08:33N 53°35' W 000°04'0 0.0
2016-Sep-21 05:33N 53°35' W 000°04'0 0.0
2016-Sep-21 03:33N 53°35' W 000°04'0 0.0
2016-Sep-21 02:34N 53°35' W 000°04'18 0.6
2016-Sep-19 19:27N 53°33' E 000°26'6 6.7
2016-Sep-19 18:33N 53°33' E 000°16'10 5.1
2016-Sep-19 16:33N 53°35' W 000°01'2 0.8
2016-Sep-19 14:33N 53°35' W 000°04'0 0.0
2016-Sep-19 13:33N 53°35' W 000°04'0 0.0
2016-Sep-19 12:33N 53°35' W 000°04'0 0.0
2016-Sep-19 11:33N 53°35' W 000°04'0 0.0
2016-Sep-19 09:29N 53°35' W 000°04'0 0.0
2016-Sep-19 07:17N 53°35' W 000°04'0 0.0
2016-Sep-19 06:33N 53°35' W 000°04'0 0.0
2016-Sep-19 03:33N 53°35' W 000°04'0 0.0
2016-Sep-19 02:33N 53°35' W 000°04'0 0.0
2016-Sep-19 00:33N 53°35' W 000°04'0 0.0
2016-Sep-18 19:30N 53°35' W 000°04'1 0.3
2016-Sep-18 15:33N 53°35' W 000°02'1 1.0
2016-Sep-18 14:33N 53°36' E 000°00'68 5.7
2016-Sep-18 02:33N 52°55' E 001°32'10 9.6
2016-Sep-18 01:33N 52°47' E 001°41'9 9.1
2016-Sep-18 00:33N 52°39' E 001°46'  
Track history (hours):
 
Tides and Currents Weather Stations Pressure Air Temp Water Temp Dewpoint Dewpoint Depression Visibility Wind Speed Wind Dir Waves Ship Positions

Martine P

Last reported at 2016-Sep-26 02:33 UTC. Time now 2016-Sep-26 03:42 UTC.
Position N 53°35' W 000°04'.

Length 27 m; draft 2.8 m.

Type: Tug. MMSI: 235091541.

Date/timePositionNaut miles runAvg speedWind from/ knotsBaromVisibWave heightAir tempDewpointWater temp
2016-Sep-26 02:33N 53°35' W 000°04'0 0.0
2016-Sep-26 01:33N 53°35' W 000°04'0 0.0
2016-Sep-26 00:33N 53°35' W 000°04'0 0.0
2016-Sep-25 21:33N 53°35' W 000°04'0 0.0
2016-Sep-25 17:30N 53°35' W 000°04'0 0.0
2016-Sep-25 16:33N 53°35' W 000°04'0 0.0
2016-Sep-25 15:33N 53°35' W 000°04'0 0.0
2016-Sep-25 14:33N 53°35' W 000°04'0 0.0
2016-Sep-25 12:33N 53°35' W 000°04'0 0.0
2016-Sep-25 11:30N 53°35' W 000°04'0 0.0
2016-Sep-25 10:33N 53°35' W 000°04'0 0.0
2016-Sep-25 09:33N 53°35' W 000°04'0 0.0
2016-Sep-25 07:33N 53°35' W 000°04'0 0.0
2016-Sep-25 04:33N 53°35' W 000°04'0 0.0
2016-Sep-25 00:33N 53°35' W 000°04'0 0.0
2016-Sep-24 22:33N 53°35' W 000°04'0 0.0
2016-Sep-24 21:33N 53°35' W 000°04'0 0.0
2016-Sep-24 19:33N 53°35' W 000°04'0 0.0
2016-Sep-24 18:33N 53°35' W 000°04'0 0.0
2016-Sep-24 17:33N 53°35' W 000°04'0 0.0
2016-Sep-24 16:32N 53°35' W 000°04'0 0.0
2016-Sep-24 14:33N 53°35' W 000°04'0 0.0
2016-Sep-24 12:33N 53°35' W 000°04'0 0.0
2016-Sep-24 10:33N 53°35' W 000°04'0 0.0
2016-Sep-24 09:33N 53°35' W 000°04'0 0.0
2016-Sep-24 03:33N 53°35' W 000°04'0 0.0
2016-Sep-24 02:32N 53°35' W 000°04'0 0.0
2016-Sep-24 01:33N 53°35' W 000°04'0 0.0
2016-Sep-24 00:33N 53°35' W 000°04'0 0.0
2016-Sep-23 19:32N 53°35' W 000°04'0 0.0
2016-Sep-23 17:32N 53°35' W 000°04'0 0.0
2016-Sep-23 16:32N 53°35' W 000°04'0 0.0
2016-Sep-23 15:32N 53°35' W 000°04'0 0.0
2016-Sep-23 13:33N 53°35' W 000°04'0 0.0
2016-Sep-23 09:33N 53°35' W 000°04'0 0.0
2016-Sep-23 06:33N 53°35' W 000°04'0 0.0
2016-Sep-23 04:34N 53°35' W 000°04'0 0.0
2016-Sep-23 03:33N 53°35' W 000°04'0 0.0
2016-Sep-23 02:34N 53°35' W 000°04'0 0.0
2016-Sep-23 01:33N 53°35' W 000°04'0 0.0
2016-Sep-23 00:33N 53°35' W 000°04'0 0.0
2016-Sep-22 23:33N 53°35' W 000°04'0 0.0
2016-Sep-22 20:33N 53°35' W 000°04'0 0.0
2016-Sep-22 12:34N 53°35' W 000°04'0 0.0
2016-Sep-22 04:33N 53°35' W 000°04'0 0.0
2016-Sep-22 03:33N 53°35' W 000°04'0 0.0
2016-Sep-22 00:33N 53°35' W 000°04'0 0.0
2016-Sep-21 23:33N 53°35' W 000°04'0 0.0
2016-Sep-21 22:33N 53°35' W 000°04'0 0.0
2016-Sep-21 19:33N 53°35' W 000°04'0 0.0
2016-Sep-21 16:33N 53°35' W 000°04'0 0.0
2016-Sep-21 09:33N 53°35' W 000°04'0 0.0
2016-Sep-21 08:33N 53°35' W 000°04'0 0.0
2016-Sep-21 05:33N 53°35' W 000°04'0 0.0
2016-Sep-21 03:33N 53°35' W 000°04'0 0.0
2016-Sep-21 02:34N 53°35' W 000°04'18 0.6
2016-Sep-19 19:27N 53°33' E 000°26'6 6.7
2016-Sep-19 18:33N 53°33' E 000°16'10 5.1
2016-Sep-19 16:33N 53°35' W 000°01'2 0.8
2016-Sep-19 14:33N 53°35' W 000°04'0 0.0
2016-Sep-19 13:33N 53°35' W 000°04'0 0.0
2016-Sep-19 12:33N 53°35' W 000°04'0 0.0
2016-Sep-19 11:33N 53°35' W 000°04'0 0.0
2016-Sep-19 09:29N 53°35' W 000°04'0 0.0
2016-Sep-19 07:17N 53°35' W 000°04'0 0.0
2016-Sep-19 06:33N 53°35' W 000°04'0 0.0
2016-Sep-19 03:33N 53°35' W 000°04'0 0.0
2016-Sep-19 02:33N 53°35' W 000°04'0 0.0
2016-Sep-19 00:33N 53°35' W 000°04'0 0.0
2016-Sep-18 19:30N 53°35' W 000°04'1 0.3
2016-Sep-18 15:33N 53°35' W 000°02'1 1.0
2016-Sep-18 14:33N 53°36' E 000°00'68 5.7
2016-Sep-18 02:33N 52°55' E 001°32'10 9.6
2016-Sep-18 01:33N 52°47' E 001°41'9 9.1
2016-Sep-18 00:33N 52°39' E 001°46'  

Dump ship's entire track history